Time;durP1;ratioP1;P1;durP2;ratioP2;P2;SDS_P1;SDS_P2;PMS_P1;PMS_P2;Temp;Humidity;BMP_temperature;BMP_pressure;BME280_temperature;BME280_humidity;BME280_pressure;Samples;Min_cycle;Max_cycle;Signal;HPM_P1;HPM_P2
2022/06/25 00:01:47;;;;;;;;;1.00;1.00;;;;;25.70;55.41;100698.63;5058064;28;45359;-66
2022/06/25 00:06:56;;;;;;;;;2.33;1.67;;;;;25.36;56.10;100699.53;5058333;28;45380;-67
2022/06/25 00:09:21;;;;;;;;;4.00;2.00;;;;;25.69;54.58;100687.72;5064394;28;45219;-67
2022/06/25 00:14:31;;;;;;;;;1.00;1.00;;;;;25.59;55.09;100678.09;5065188;28;45398;-66
2022/06/25 00:16:56;;;;;;;;;3.33;3.00;;;;;25.72;54.35;100682.50;5059838;28;46052;-67
2022/06/25 00:19:23;;;;;;;;;2.00;1.00;;;;;25.75;54.07;100692.28;5063175;28;45435;-67
2022/06/25 00:21:49;;;;;;;;;2.00;1.33;;;;;25.56;54.30;100667.44;5058489;28;45278;-65
2022/06/25 00:24:16;;;;;;;;;2.00;2.00;;;;;25.43;56.62;100695.53;5064788;28;45571;-66
2022/06/25 00:26:42;;;;;;;;;1.67;1.67;;;;;25.62;57.44;100685.09;5062015;28;45440;-67
2022/06/25 00:29:08;;;;;;;;;2.00;2.00;;;;;25.66;57.19;100686.28;5064486;28;45464;-65
2022/06/25 00:31:33;;;;;;;;;3.33;3.33;;;;;25.68;58.97;100688.81;5059519;28;45515;-66
2022/06/25 00:33:58;;;;;;;;;2.00;2.00;;;;;25.28;60.24;100689.66;5060179;28;45503;-67
2022/06/25 00:36:24;;;;;;;;;3.00;3.00;;;;;25.46;66.39;100696.97;5062497;28;45346;-66
2022/06/25 00:38:49;;;;;;;;;2.00;2.00;;;;;25.62;61.05;100692.59;5064227;28;45340;-64
2022/06/25 00:41:14;;;;;;;;;4.00;2.67;;;;;25.32;66.72;100688.06;5061646;28;45525;-66
2022/06/25 00:43:40;;;;;;;;;1.67;1.67;;;;;25.33;66.85;100698.13;5064821;28;45321;-67
2022/06/25 00:46:06;;;;;;;;;3.00;3.00;;;;;25.35;68.43;100693.13;5059875;28;45412;-64
2022/06/25 00:48:32;;;;;;;;;2.33;2.33;;;;;25.19;65.27;100693.94;5062830;28;45378;-67
2022/06/25 00:50:58;;;;;;;;;2.67;2.67;;;;;25.13;64.55;100700.47;5059286;28;45428;-66
2022/06/25 00:53:30;;;;;;;;;3.33;3.00;;;;;25.30;66.16;100698.59;5063004;28;45337;-66
2022/06/25 00:55:58;;;;;;;;;4.00;4.00;;;;;25.10;67.34;100698.16;5059646;28;46278;-66
2022/06/25 00:58:29;;;;;;;;;2.00;2.00;;;;;25.24;66.02;100707.09;5059166;28;45327;-65
2022/06/25 01:00:55;;;;;;;;;3.67;2.00;;;;;25.20;64.29;100706.75;5060070;28;45497;-66
2022/06/25 01:03:20;;;;;;;;;2.67;2.67;;;;;25.04;65.84;100696.38;5062056;28;45390;-66
2022/06/25 01:05:46;;;;;;;;;2.00;2.00;;;;;25.15;65.20;100698.28;5061122;28;45364;-66
2022/06/25 01:08:11;;;;;;;;;3.00;2.33;;;;;25.06;66.03;100696.94;5076228;28;45394;-66
2022/06/25 01:10:37;;;;;;;;;5.33;3.67;;;;;25.11;66.32;100702.66;5062139;28;45423;-66
2022/06/25 01:13:02;;;;;;;;;0.00;0.00;;;;;24.47;67.14;100703.63;5062762;28;45556;-66
2022/06/25 01:15:27;;;;;;;;;2.00;2.00;;;;;24.70;67.19;100701.69;5062008;28;45629;-66
2022/06/25 01:17:53;;;;;;;;;3.00;1.00;;;;;24.96;65.54;100707.88;5060728;28;45284;-67
2022/06/25 01:20:20;;;;;;;;;3.33;3.00;;;;;25.08;65.81;100697.56;5077614;28;45318;-66
2022/06/25 01:22:46;;;;;;;;;2.00;2.00;;;;;24.69;66.31;100691.66;5061891;28;45357;-66
2022/06/25 01:25:13;;;;;;;;;5.33;3.00;;;;;24.94;66.63;100696.97;5062688;28;46122;-66
2022/06/25 01:27:39;;;;;;;;;3.33;3.00;;;;;24.93;65.40;100688.88;5061898;28;45389;-66
2022/06/25 01:30:06;;;;;;;;;4.00;4.00;;;;;25.09;65.43;100702.03;5063574;28;45301;-66
2022/06/25 01:32:32;;;;;;;;;4.00;3.00;;;;;24.98;64.43;100694.56;5060807;28;45623;-66
2022/06/25 01:34:57;;;;;;;;;2.00;2.00;;;;;24.68;63.54;100695.53;5079463;27;47690;-66
2022/06/25 01:37:23;;;;;;;;;1.00;1.00;;;;;24.89;66.69;100696.00;5055853;28;45432;-67
2022/06/25 01:39:56;;;;;;;;;3.00;1.67;;;;;24.90;64.26;100695.81;5063812;28;45542;-66
2022/06/25 01:45:08;;;;;;;;;3.00;3.00;;;;;25.28;63.60;100706.34;5063174;28;45429;-66
2022/06/25 01:47:33;;;;;;;;;2.33;1.67;;;;;25.23;62.27;100709.00;5057847;28;45333;-66
2022/06/25 01:49:58;;;;;;;;;2.00;2.00;;;;;25.17;61.99;100698.88;5063599;28;45697;-66
2022/06/25 01:52:24;;;;;;;;;1.33;1.33;;;;;25.30;62.49;100701.38;5056994;28;45580;-66
2022/06/25 01:54:49;;;;;;;;;2.00;2.00;;;;;25.19;63.56;100705.06;5063548;28;45407;-66
2022/06/25 01:57:14;;;;;;;;;4.33;4.33;;;;;24.96;63.85;100705.94;5060594;28;45554;-66
2022/06/25 01:59:40;;;;;;;;;3.00;3.00;;;;;25.05;62.19;100710.03;5060767;28;45456;-66
2022/06/25 02:02:05;;;;;;;;;2.00;2.00;;;;;24.89;63.67;100702.41;5060422;28;45357;-66
2022/06/25 02:04:30;;;;;;;;;2.67;2.67;;;;;24.90;63.46;100693.00;5061428;28;46851;-66
2022/06/25 02:06:56;;;;;;;;;3.00;3.00;;;;;25.06;63.70;100699.72;5059177;28;45365;-66
2022/06/25 02:09:21;;;;;;;;;2.00;2.00;;;;;24.71;63.72;100706.16;5062928;28;45555;-66
2022/06/25 02:11:46;;;;;;;;;2.00;2.00;;;;;24.84;64.25;100699.50;5058521;28;45428;-66
2022/06/25 02:14:12;;;;;;;;;2.00;2.00;;;;;24.80;63.70;100690.81;5059486;28;47683;-66
2022/06/25 02:16:37;;;;;;;;;1.67;1.67;;;;;24.50;64.37;100706.75;5058631;28;45422;-66
2022/06/25 02:19:02;;;;;;;;;1.00;1.00;;;;;24.74;64.09;100707.63;5062129;28;45382;-67
2022/06/25 02:21:28;;;;;;;;;2.00;2.00;;;;;24.90;63.57;100700.47;5060248;28;46023;-67
2022/06/25 02:23:53;;;;;;;;;2.33;2.00;;;;;24.89;63.15;100713.53;5054736;28;46588;-66
2022/06/25 02:26:18;;;;;;;;;3.00;2.00;;;;;24.86;65.35;100708.44;5058983;28;45441;-66
2022/06/25 02:28:44;;;;;;;;;4.00;2.33;;;;;24.77;65.39;100710.72;5063132;28;45311;-66
2022/06/25 02:31:09;;;;;;;;;3.00;3.00;;;;;24.67;66.67;100712.44;5056661;28;45363;-67
2022/06/25 02:33:34;;;;;;;;;2.00;2.00;;;;;24.47;67.51;100707.25;5060643;28;45411;-67
2022/06/25 02:36:00;;;;;;;;;3.33;2.00;;;;;24.25;70.13;100697.81;5060946;28;45396;-66
2022/06/25 02:38:25;;;;;;;;;1.67;1.67;;;;;24.51;68.47;100704.81;5060033;28;45504;-66
2022/06/25 02:40:51;;;;;;;;;3.67;2.67;;;;;24.46;68.98;100704.72;5060267;28;45347;-66
2022/06/25 02:43:17;;;;;;;;;2.67;2.00;;;;;24.43;68.32;100706.88;5075527;28;47396;-66
2022/06/25 02:45:42;;;;;;;;;2.00;2.00;;;;;24.54;68.37;100698.81;5060119;28;45302;-67
2022/06/25 02:48:07;;;;;;;;;4.00;2.67;;;;;24.60;69.31;100712.56;5058757;28;45341;-66
2022/06/25 02:50:33;;;;;;;;;4.00;2.00;;;;;24.70;68.01;100707.25;5058911;28;45268;-66
2022/06/25 02:52:58;;;;;;;;;1.33;1.00;;;;;24.76;66.62;100722.97;5057889;28;46069;-66
2022/06/25 03:00:52;;;;;;;;;2.33;2.00;;;;;24.43;73.98;100731.03;5059733;28;45302;-67
2022/06/25 03:03:17;;;;;;;;;3.00;3.00;;;;;24.45;72.98;100720.53;5062040;28;45331;-66
2022/06/25 03:05:43;;;;;;;;;3.00;2.00;;;;;24.51;73.67;100711.22;5060179;28;45482;-66
2022/06/25 03:08:08;;;;;;;;;3.67;1.33;;;;;24.55;72.16;100717.13;5060893;28;46736;-67
2022/06/25 03:10:33;;;;;;;;;2.00;2.00;;;;;24.53;72.93;100713.78;5060626;28;45235;-66
2022/06/25 03:12:58;;;;;;;;;1.00;1.00;;;;;24.56;70.91;100693.84;5055531;28;47713;-66
2022/06/25 03:15:24;;;;;;;;;1.00;1.00;;;;;24.64;71.83;100716.53;5060393;28;45397;-66
2022/06/25 03:17:49;;;;;;;;;1.00;1.00;;;;;24.44;70.75;100718.84;5057712;28;45476;-66
2022/06/25 03:20:15;;;;;;;;;0.67;0.67;;;;;23.75;73.54;100711.16;5060673;28;45488;-66
2022/06/25 03:22:40;;;;;;;;;2.00;2.00;;;;;24.11;72.27;100726.84;5060587;28;45366;-66
2022/06/25 03:25:06;;;;;;;;;1.00;1.00;;;;;24.38;70.68;100719.81;5062139;28;45322;-66
2022/06/25 03:27:31;;;;;;;;;1.00;1.00;;;;;24.48;69.46;100720.03;5055030;28;45491;-66
2022/06/25 03:29:57;;;;;;;;;2.00;1.00;;;;;24.53;69.23;100711.84;5066245;28;45294;-67
2022/06/25 03:32:22;;;;;;;;;2.00;1.67;;;;;24.57;68.02;100724.16;5061012;28;46646;-67
2022/06/25 03:34:47;;;;;;;;;1.00;1.00;;;;;25.28;64.70;100720.25;5065531;28;45357;-67
2022/06/25 03:37:13;;;;;;;;;1.00;1.00;;;;;25.16;64.24;100719.44;5058986;28;45444;-67
2022/06/25 03:39:38;;;;;;;;;1.00;1.00;;;;;24.90;63.58;100723.59;5065938;28;45520;-67
2022/06/25 03:42:04;;;;;;;;;1.00;1.00;;;;;25.10;64.67;100728.75;5057565;28;46156;-64
2022/06/25 03:44:29;;;;;;;;;1.00;1.00;;;;;24.88;64.50;100728.50;5065323;28;45393;-64
2022/06/25 03:46:54;;;;;;;;;1.00;1.00;;;;;24.60;64.08;100736.72;5058497;28;51550;-64
2022/06/25 03:49:20;;;;;;;;;0.00;0.00;;;;;24.59;65.24;100735.88;5065879;28;45226;-65
2022/06/25 03:51:45;;;;;;;;;0.00;0.00;;;;;24.60;65.12;100740.34;5058436;28;45507;-65
2022/06/25 03:54:10;;;;;;;;;3.00;0.00;;;;;24.75;63.50;100740.72;5064875;28;45472;-65
2022/06/25 03:56:36;;;;;;;;;2.00;0.00;;;;;24.79;63.19;100739.13;5058988;28;45319;-65
2022/06/25 03:59:02;;;;;;;;;2.00;0.00;;;;;24.89;62.35;100729.34;5065389;28;45532;-65
2022/06/25 04:01:28;;;;;;;;;2.00;0.33;;;;;24.93;62.88;100744.47;5061657;28;45359;-65
2022/06/25 04:03:53;;;;;;;;;2.00;1.00;;;;;24.71;63.21;100742.28;5064264;28;45159;-66
2022/06/25 04:06:18;;;;;;;;;0.00;0.00;;;;;25.08;61.93;100731.78;5058995;28;45372;-66
2022/06/25 04:08:44;;;;;;;;;1.00;1.00;;;;;25.23;62.08;100738.75;5065396;28;45501;-65
2022/06/25 04:11:10;;;;;;;;;0.33;0.33;;;;;25.18;61.66;100737.56;5062082;28;45454;-65
2022/06/25 04:13:35;;;;;;;;;0.00;0.00;;;;;25.23;61.48;100744.31;5079491;28;45451;-65
2022/06/25 04:16:01;;;;;;;;;1.00;1.00;;;;;25.24;61.10;100757.13;5062064;28;45497;-67
2022/06/25 04:18:26;;;;;;;;;1.00;1.00;;;;;25.25;61.03;100748.56;5063545;28;45452;-64
2022/06/25 04:20:52;;;;;;;;;1.00;1.00;;;;;25.41;61.02;100758.94;5058481;28;46847;-65
2022/06/25 04:23:17;;;;;;;;;1.00;0.00;;;;;25.52;60.21;100759.97;5062005;28;45502;-66
2022/06/25 04:25:42;;;;;;;;;0.33;0.33;;;;;25.24;60.80;100738.50;5062550;28;45547;-66
2022/06/25 04:30:52;;;;;;;;;0.00;0.00;;;;;25.04;63.16;100760.31;5062193;28;45653;-67
2022/06/25 04:33:17;;;;;;;;;0.00;0.00;;;;;25.00;61.61;100754.38;5064301;28;45326;-67
2022/06/25 04:35:43;;;;;;;;;0.00;0.00;;;;;25.11;62.41;100753.53;5062583;28;45302;-66
2022/06/25 04:38:09;;;;;;;;;2.00;1.00;;;;;25.07;62.12;100773.72;5053203;28;45589;-66
2022/06/25 04:40:34;;;;;;;;;1.00;1.00;;;;;25.23;62.37;100769.34;5060660;28;47158;-66
2022/06/25 04:43:00;;;;;;;;;0.67;0.00;;;;;25.39;60.87;100766.66;5061675;28;45255;-66
2022/06/25 04:45:25;;;;;;;;;1.00;1.00;;;;;25.50;61.20;100776.91;5062496;28;46289;-66
2022/06/25 04:47:51;;;;;;;;;0.00;0.00;;;;;25.31;61.09;100768.97;5060085;28;45485;-66
2022/06/25 04:50:16;;;;;;;;;2.00;1.00;;;;;25.30;60.60;100782.03;5061674;28;48303;-67
2022/06/25 04:52:42;;;;;;;;;0.67;0.67;;;;;25.49;59.93;100771.59;5060996;28;45312;-67
2022/06/25 04:55:07;;;;;;;;;0.33;0.00;;;;;25.84;59.76;100788.22;5064195;28;45419;-65
2022/06/25 04:57:33;;;;;;;;;1.33;1.33;;;;;25.61;59.89;100774.38;5057550;28;45369;-66
2022/06/25 04:59:58;;;;;;;;;1.00;1.00;;;;;25.51;60.85;100781.38;5062558;28;46814;-67
2022/06/25 05:02:24;;;;;;;;;0.00;0.00;;;;;25.31;61.00;100782.88;5059862;28;45978;-67
2022/06/25 05:04:49;;;;;;;;;0.00;0.00;;;;;25.41;60.42;100785.91;5064043;28;45306;-67
2022/06/25 05:07:14;;;;;;;;;1.00;1.00;;;;;25.46;59.66;100792.41;5059296;28;45595;-67
2022/06/25 05:09:40;;;;;;;;;0.00;0.00;;;;;25.61;59.44;100791.06;5059608;28;46204;-67
2022/06/25 05:12:06;;;;;;;;;2.00;0.00;;;;;25.55;59.70;100796.50;5058616;28;45386;-67
2022/06/25 05:14:31;;;;;;;;;0.33;0.00;;;;;25.43;59.78;100801.22;5060473;28;45459;-65
2022/06/25 05:16:57;;;;;;;;;0.00;0.00;;;;;25.48;59.21;100798.56;5060112;28;45574;-65
2022/06/25 05:19:22;;;;;;;;;2.00;0.00;;;;;25.66;59.23;100805.09;5063551;28;45467;-65
2022/06/25 05:21:47;;;;;;;;;2.00;1.00;;;;;25.81;58.72;100811.81;5060498;28;45428;-65
2022/06/25 05:24:13;;;;;;;;;1.00;1.00;;;;;25.87;57.65;100808.03;5063853;28;45388;-65
2022/06/25 05:26:38;;;;;;;;;0.67;0.33;;;;;26.01;56.98;100810.56;5058829;28;45466;-65
2022/06/25 05:29:03;;;;;;;;;1.00;1.00;;;;;26.05;57.06;100820.94;5062295;28;47089;-68
2022/06/25 05:31:29;;;;;;;;;1.00;1.00;;;;;26.11;56.45;100808.78;5059590;28;45304;-67
2022/06/25 05:33:54;;;;;;;;;0.00;0.00;;;;;26.19;55.89;100813.13;5062059;28;45511;-67
2022/06/25 05:36:19;;;;;;;;;2.00;1.00;;;;;26.21;55.63;100814.56;5058251;28;45297;-67
2022/06/25 05:38:45;;;;;;;;;1.00;1.00;;;;;26.24;55.44;100819.63;5063242;28;45492;-67
2022/06/25 05:41:11;;;;;;;;;1.00;1.00;;;;;26.30;54.92;100821.44;5058156;28;45388;-66
2022/06/25 05:43:38;;;;;;;;;1.00;1.00;;;;;26.23;54.51;100820.72;5062781;28;45343;-66
2022/06/25 05:46:03;;;;;;;;;0.00;0.00;;;;;26.41;54.14;100818.84;5060876;28;45611;-67
2022/06/25 05:48:29;;;;;;;;;1.00;0.67;;;;;26.49;54.03;100821.22;5058425;28;46104;-67
2022/06/25 05:50:55;;;;;;;;;2.33;1.00;;;;;26.57;53.16;100818.88;5060237;28;45466;-67
2022/06/25 05:53:20;;;;;;;;;0.00;0.00;;;;;26.43;53.42;100811.94;5060730;28;45555;-67
2022/06/25 05:55:46;;;;;;;;;1.00;1.00;;;;;26.62;52.23;100818.97;5057582;28;45477;-67
2022/06/25 05:58:12;;;;;;;;;1.00;1.00;;;;;26.76;51.46;100816.69;5061597;28;46160;-67
2022/06/25 06:00:38;;;;;;;;;2.67;1.00;;;;;26.71;51.64;100808.25;5059582;28;45417;-67
2022/06/25 06:03:04;;;;;;;;;0.00;0.00;;;;;26.28;52.89;100818.06;5058292;28;45410;-68
2022/06/25 06:05:29;;;;;;;;;2.00;2.00;;;;;26.27;51.35;100819.16;5061026;28;45477;-68
2022/06/25 06:07:54;;;;;;;;;3.00;1.00;;;;;26.45;50.55;100820.88;5058371;28;46402;-67
2022/06/25 06:10:20;;;;;;;;;1.00;1.00;;;;;26.54;50.70;100819.38;5061775;28;45300;-68
2022/06/25 06:12:45;;;;;;;;;1.00;1.00;;;;;26.60;50.78;100809.16;5058537;28;45576;-67
2022/06/25 06:15:11;;;;;;;;;1.00;1.00;;;;;26.64;49.98;100810.34;5063003;28;45519;-67
2022/06/25 06:17:37;;;;;;;;;3.67;1.00;;;;;26.78;49.56;100820.06;5058686;28;45544;-68
2022/06/25 06:20:02;;;;;;;;;0.67;0.67;;;;;26.39;49.88;100818.25;5062473;28;45505;-68
2022/06/25 06:22:28;;;;;;;;;0.67;0.67;;;;;26.52;48.30;100823.53;5059403;28;45650;-67
2022/06/25 06:24:54;;;;;;;;;2.33;1.33;;;;;26.53;50.35;100825.19;5062406;28;45427;-68
2022/06/25 06:27:19;;;;;;;;;2.00;1.00;;;;;26.75;48.59;100824.19;5053498;28;46126;-68
2022/06/25 06:29:44;;;;;;;;;1.00;1.00;;;;;26.78;46.91;100828.44;5049820;28;45208;-68
2022/06/25 06:32:10;;;;;;;;;1.00;1.00;;;;;26.96;48.27;100817.03;5051965;28;45686;-68
2022/06/25 06:34:36;;;;;;;;;1.00;1.00;;;;;27.00;48.55;100823.81;5077289;28;45394;-69
2022/06/25 06:37:01;;;;;;;;;1.33;1.33;;;;;27.10;47.38;100814.75;5053564;28;45474;-68
2022/06/25 06:39:26;;;;;;;;;2.00;2.00;;;;;27.01;47.54;100819.94;5061816;28;45440;-68
2022/06/25 06:41:52;;;;;;;;;2.00;2.00;;;;;27.01;47.29;100807.94;5055503;28;45414;-68
2022/06/25 06:44:18;;;;;;;;;0.67;0.67;;;;;26.98;45.93;100834.38;5062503;28;45432;-66
2022/06/25 06:46:43;;;;;;;;;2.33;1.00;;;;;27.15;46.38;100830.72;5058741;28;45447;-67
2022/06/25 06:49:09;;;;;;;;;1.00;1.00;;;;;27.09;46.33;100827.88;5061232;28;45365;-67
2022/06/25 06:51:35;;;;;;;;;2.00;2.00;;;;;26.93;46.24;100823.13;5067493;28;45508;-66
2022/06/25 06:54:00;;;;;;;;;3.33;2.00;;;;;26.77;47.49;100818.38;5061903;28;45379;-67
2022/06/25 06:56:25;;;;;;;;;1.67;1.00;;;;;26.49;47.54;100826.81;5057032;28;46030;-67
2022/06/25 06:58:51;;;;;;;;;1.00;1.00;;;;;26.77;48.34;100835.09;5061956;28;45328;-67
2022/06/25 07:01:16;;;;;;;;;1.00;1.00;;;;;26.95;47.64;100840.47;5073479;27;45460;-67
2022/06/25 07:03:41;;;;;;;;;1.00;1.00;;;;;26.99;47.47;100833.28;5066287;28;45493;-67
2022/06/25 07:06:07;;;;;;;;;1.33;1.33;;;;;26.79;47.40;100832.91;5060492;28;46244;-66
2022/06/25 07:08:32;;;;;;;;;1.00;0.00;;;;;26.94;46.59;100832.34;5064392;28;45405;-69
2022/06/25 07:10:57;;;;;;;;;1.33;1.00;;;;;26.88;45.73;100827.75;5061998;28;45323;-68
2022/06/25 07:13:23;;;;;;;;;1.00;1.00;;;;;27.01;45.92;100835.81;5064847;28;45370;-67
2022/06/25 07:15:48;;;;;;;;;2.00;1.00;;;;;27.32;44.66;100828.75;5063071;28;45407;-68
2022/06/25 07:18:13;;;;;;;;;2.00;0.00;;;;;26.72;44.36;100835.88;5063779;28;45334;-68
2022/06/25 07:20:39;;;;;;;;;2.00;0.00;;;;;26.90;45.21;100843.16;5063961;28;45226;-67
2022/06/25 07:23:05;;;;;;;;;2.00;0.00;;;;;27.05;44.44;100842.56;5065321;28;45380;-68
2022/06/25 07:25:30;;;;;;;;;1.33;1.00;;;;;27.00;44.24;100846.13;5062980;28;45965;-68
2022/06/25 07:27:56;;;;;;;;;1.00;1.00;;;;;27.39;44.57;100840.56;5064112;28;45467;-68
2022/06/25 07:30:21;;;;;;;;;3.00;1.00;;;;;27.33;43.84;100848.00;5063828;28;45389;-67
2022/06/25 07:32:46;;;;;;;;;1.33;1.00;;;;;27.63;43.40;100842.03;5059282;28;45377;-68
2022/06/25 07:35:12;;;;;;;;;1.00;1.00;;;;;27.28;44.18;100834.00;5065498;28;45339;-69
2022/06/25 07:37:37;;;;;;;;;1.00;0.00;;;;;27.40;44.54;100839.44;5057375;28;48634;-68
2022/06/25 07:40:03;;;;;;;;;1.67;1.67;;;;;27.84;43.62;100840.34;5065390;28;45293;-68
2022/06/25 07:42:31;;;;;;;;;1.00;1.00;;;;;28.10;43.10;100847.13;5059390;28;45527;-67
2022/06/25 07:44:58;;;;;;;;;0.33;0.33;;;;;28.20;42.60;100850.06;5065224;28;45539;-68
2022/06/25 07:47:23;;;;;;;;;1.33;1.00;;;;;28.19;42.80;100848.38;5058402;28;45224;-67
2022/06/25 07:52:32;;;;;;;;;2.00;0.33;;;;;27.94;43.30;100850.81;5059977;28;45318;-68
2022/06/25 07:54:57;;;;;;;;;1.00;1.00;;;;;27.82;43.89;100843.44;5065128;28;45342;-68
2022/06/25 07:57:23;;;;;;;;;1.00;1.00;;;;;27.53;43.30;100849.47;5060402;28;45339;-68
2022/06/25 07:59:48;;;;;;;;;1.00;1.00;;;;;27.92;43.88;100853.03;5064902;28;45459;-68
2022/06/25 08:02:13;;;;;;;;;3.00;1.00;;;;;28.09;42.72;100867.78;5058867;28;45461;-68
2022/06/25 08:04:39;;;;;;;;;1.00;1.00;;;;;28.23;42.86;100860.69;5064601;28;45325;-68
2022/06/25 08:07:04;;;;;;;;;1.00;1.00;;;;;28.22;42.19;100870.19;5061981;28;45354;-67
2022/06/25 08:09:30;;;;;;;;;0.00;0.00;;;;;27.94;41.80;100862.00;5062731;28;45312;-67
2022/06/25 08:11:55;;;;;;;;;1.00;1.00;;;;;28.21;42.14;100869.34;5055860;28;45449;-68
2022/06/25 08:14:21;;;;;;;;;1.00;1.00;;;;;27.25;42.90;100865.19;5064400;28;45406;-68
2022/06/25 08:16:46;;;;;;;;;1.00;1.00;;;;;27.49;43.36;100863.88;5061452;28;45471;-68
2022/06/25 08:19:12;;;;;;;;;1.67;1.67;;;;;27.68;42.61;100878.44;5064771;28;45441;-68
2022/06/25 08:21:37;;;;;;;;;3.00;3.00;;;;;27.57;42.08;100875.72;5063062;28;45587;-68
2022/06/25 08:24:03;;;;;;;;;3.00;3.00;;;;;27.52;42.68;100879.28;5064641;28;46527;-67
2022/06/25 08:26:28;;;;;;;;;1.00;1.00;;;;;27.17;43.91;100879.59;5060558;28;45459;-67
2022/06/25 08:28:54;;;;;;;;;2.00;2.00;;;;;27.41;44.31;100869.91;5058653;28;45292;-67
2022/06/25 08:31:19;;;;;;;;;2.00;1.00;;;;;27.61;42.67;100874.13;5062809;28;45407;-67
2022/06/25 08:33:45;;;;;;;;;1.00;1.00;;;;;27.83;43.10;100875.81;5056894;28;46154;-68
2022/06/25 08:36:10;;;;;;;;;4.00;2.00;;;;;28.18;42.32;100877.41;5061424;28;45436;-67
2022/06/25 08:38:36;;;;;;;;;2.00;2.00;;;;;27.57;42.94;100879.38;5064371;28;45799;-67
2022/06/25 08:41:02;;;;;;;;;0.00;0.00;;;;;27.28;44.61;100889.78;5061291;28;45541;-68
2022/06/25 08:43:29;;;;;;;;;2.00;2.00;;;;;27.45;43.91;100887.00;5062047;28;45999;-67
2022/06/25 08:45:55;;;;;;;;;1.33;0.67;;;;;27.87;43.69;100893.75;5060035;28;45402;-67
2022/06/25 08:48:23;;;;;;;;;1.00;1.00;;;;;27.87;43.18;100895.69;5061297;28;45451;-67
2022/06/25 08:50:50;;;;;;;;;2.00;2.00;;;;;27.75;42.58;100893.03;5062367;28;45321;-67
2022/06/25 08:53:18;;;;;;;;;2.00;2.00;;;;;27.46;43.86;100891.47;5057213;28;47068;-68
2022/06/25 08:55:45;;;;;;;;;3.33;1.00;;;;;27.45;43.57;100892.56;5061920;28;45215;-67
2022/06/25 08:58:12;;;;;;;;;0.00;0.00;;;;;27.82;43.51;100904.88;5059526;28;45366;-67
2022/06/25 09:00:40;;;;;;;;;5.00;1.67;;;;;27.76;43.40;100900.28;5060650;28;45393;-67
2022/06/25 09:03:07;;;;;;;;;1.67;1.67;;;;;28.05;42.29;100902.94;5062118;28;46365;-66
2022/06/25 09:05:40;;;;;;;;;1.33;1.33;;;;;27.83;43.09;100898.16;5062142;28;45453;-67
2022/06/25 09:08:09;;;;;;;;;1.67;1.67;;;;;27.53;43.92;100896.91;5076276;27;45382;-66
2022/06/25 09:10:35;;;;;;;;;3.00;3.00;;;;;27.63;43.50;100897.03;5062056;28;45267;-66
2022/06/25 09:13:03;;;;;;;;;1.00;1.00;;;;;27.46;44.61;100894.25;5057500;28;46266;-66
2022/06/25 09:15:43;;;;;;;;;3.00;1.33;;;;;27.57;44.57;100896.13;5062005;28;45490;-66
2022/06/25 09:18:09;;;;;;;;;1.67;1.00;;;;;27.94;42.59;100906.69;5059903;28;45293;-66
2022/06/25 09:20:35;;;;;;;;;1.00;1.00;;;;;28.24;42.84;100904.31;5062230;28;45425;-66
2022/06/25 09:23:05;;;;;;;;;1.67;1.67;;;;;27.85;45.18;100897.91;5062984;28;46326;-66
2022/06/25 09:25:34;;;;;;;;;3.00;3.00;;;;;27.75;45.93;100893.03;5052464;28;45577;-66
2022/06/25 09:28:00;;;;;;;;;3.00;2.00;;;;;28.12;44.71;100889.59;5061617;28;45225;-66
2022/06/25 09:30:30;;;;;;;;;1.67;1.67;;;;;28.31;44.32;100879.78;5062537;28;45627;-66
2022/06/25 09:33:02;;;;;;;;;3.00;3.00;;;;;28.41;42.44;100877.13;5058438;28;45485;-66
2022/06/25 09:35:36;;;;;;;;;3.00;3.00;;;;;28.45;41.68;100875.47;5062178;28;45352;-66
2022/06/25 09:38:21;;;;;;;;;2.00;2.00;;;;;28.47;40.45;100867.69;5058632;28;45514;-67
2022/06/25 09:40:47;;;;;;;;;3.00;3.00;;;;;27.61;41.74;100874.97;5061652;28;45769;-67
2022/06/25 09:43:17;;;;;;;;;2.00;2.00;;;;;27.38;43.71;100877.94;5054532;28;46226;-66
2022/06/25 09:45:48;;;;;;;;;2.00;2.00;;;;;27.79;42.32;100876.59;5059645;28;45458;-67
2022/06/25 09:48:33;;;;;;;;;1.00;1.00;;;;;28.17;41.99;100879.38;5059113;28;45332;-66
2022/06/25 09:51:09;;;;;;;;;4.00;2.00;;;;;28.31;41.22;100876.16;5059948;28;45596;-66
2022/06/25 09:53:50;;;;;;;;;3.00;1.00;;;;;28.26;41.00;100872.22;5060567;28;45418;-66
2022/06/25 09:56:19;;;;;;;;;2.33;1.00;;;;;28.43;40.70;100874.88;5047115;28;45433;-66
2022/06/25 09:58:46;;;;;;;;;0.00;0.00;;;;;28.35;41.37;100880.94;5060588;28;45402;-69
2022/06/25 10:01:15;;;;;;;;;2.33;2.33;;;;;28.08;41.13;100882.84;5061430;28;45342;-66
2022/06/25 10:03:42;;;;;;;;;2.00;2.00;;;;;28.10;41.75;100889.00;5062707;28;45526;-68
2022/06/25 10:06:08;;;;;;;;;2.00;2.00;;;;;28.33;41.60;100885.97;5060987;28;45515;-68
2022/06/25 10:08:34;;;;;;;;;5.67;3.00;;;;;28.16;41.47;100885.19;5061304;28;45454;-66
2022/06/25 10:11:04;;;;;;;;;5.33;0.33;;;;;28.16;41.97;100888.00;5060403;28;45548;-66
2022/06/25 10:13:29;;;;;;;;;1.67;1.67;;;;;28.35;40.98;100875.34;5060760;28;45981;-66
2022/06/25 10:15:56;;;;;;;;;2.67;2.00;;;;;28.56;40.47;100882.03;5060006;28;45288;-68
2022/06/25 10:18:22;;;;;;;;;1.00;1.00;;;;;28.42;40.61;100875.19;5076796;27;45321;-68
2022/06/25 10:20:48;;;;;;;;;4.00;2.00;;;;;28.40;40.74;100872.63;5061214;28;45433;-68
2022/06/25 10:23:14;;;;;;;;;1.33;1.33;;;;;28.52;40.04;100876.13;5062231;28;46361;-68
2022/06/25 10:25:41;;;;;;;;;3.00;2.00;;;;;28.61;39.95;100882.91;5060233;28;45425;-66
2022/06/25 10:28:07;;;;;;;;;2.00;2.00;;;;;28.60;40.14;100878.44;5059588;28;45476;-67
2022/06/25 10:30:44;;;;;;;;;1.67;1.67;;;;;28.70;40.93;100876.84;5061695;28;45310;-66
2022/06/25 10:33:10;;;;;;;;;2.00;2.00;;;;;28.85;40.25;100877.03;5061396;28;47850;-67
2022/06/25 10:35:39;;;;;;;;;4.33;1.33;;;;;28.74;40.75;100872.41;5059540;28;45520;-67
2022/06/25 10:38:13;;;;;;;;;4.00;2.67;;;;;28.81;42.16;100873.91;5056931;28;46482;-66
2022/06/25 10:40:53;;;;;;;;;4.67;2.00;;;;;28.96;41.25;100870.41;5057698;28;45520;-67
2022/06/25 10:43:35;;;;;;;;;2.00;2.00;;;;;28.62;41.66;100873.44;5055591;28;46124;-66
2022/06/25 10:46:22;;;;;;;;;4.67;3.00;;;;;28.95;42.87;100874.31;5054493;28;45237;-66
2022/06/25 10:49:06;;;;;;;;;1.00;1.00;;;;;29.06;41.29;100867.69;5056272;28;45233;-66
2022/06/25 10:51:35;;;;;;;;;3.67;2.00;;;;;29.33;39.45;100865.66;5054048;28;45319;-66
2022/06/25 10:54:03;;;;;;;;;6.00;3.00;;;;;29.37;39.21;100872.41;5069608;27;47408;-66
2022/06/25 10:56:45;;;;;;;;;2.00;2.00;;;;;29.34;38.57;100872.97;5031684;28;45509;-68
2022/06/25 10:59:39;;;;;;;;;2.00;2.00;;;;;29.35;39.05;100874.66;5054920;28;45452;-68
2022/06/25 11:02:10;;;;;;;;;2.33;2.00;;;;;29.40;38.75;100876.63;5054260;28;45529;-68
2022/06/25 11:04:36;;;;;;;;;3.00;3.00;;;;;29.22;38.11;100863.91;5053601;28;45485;-68
2022/06/25 11:07:09;;;;;;;;;1.33;1.33;;;;;29.17;38.35;100869.44;5057233;28;45247;-68
2022/06/25 11:09:35;;;;;;;;;4.33;3.00;;;;;29.05;38.38;100874.41;5060988;28;45794;-68
2022/06/25 11:12:01;;;;;;;;;5.00;3.00;;;;;29.35;38.65;100869.06;5056724;28;45546;-67
2022/06/25 11:14:26;;;;;;;;;4.33;2.67;;;;;29.63;38.17;100876.22;5053226;28;45462;-68
2022/06/25 11:16:53;;;;;;;;;3.00;3.00;;;;;29.85;37.53;100878.88;5059076;28;45410;-68
2022/06/25 11:19:21;;;;;;;;;5.67;3.00;;;;;29.94;37.32;100874.47;5054733;28;45324;-67
2022/06/25 11:21:48;;;;;;;;;3.00;3.00;;;;;29.98;37.16;100878.38;5056112;28;45543;-67
2022/06/25 11:24:24;;;;;;;;;2.00;2.00;;;;;29.59;36.73;100877.06;5057491;28;45476;-67
2022/06/25 11:29:46;;;;;;;;;2.67;2.67;;;;;29.92;37.55;100871.06;5061366;28;45452;-67
2022/06/25 11:32:30;;;;;;;;;3.00;3.00;;;;;29.91;37.36;100882.53;5052368;28;45271;-67
2022/06/25 11:35:00;;;;;;;;;2.00;2.00;;;;;29.68;36.90;100890.25;5073036;28;47268;-67
2022/06/25 11:37:27;;;;;;;;;1.00;1.00;;;;;29.35;37.51;100885.84;5055663;28;45288;-67
2022/06/25 11:39:52;;;;;;;;;1.67;1.67;;;;;29.38;37.42;100885.31;5060655;28;45797;-68
2022/06/25 11:42:19;;;;;;;;;3.00;3.00;;;;;29.62;37.29;100885.75;5053734;28;45536;-67
2022/06/25 11:44:49;;;;;;;;;2.33;2.33;;;;;29.62;37.90;100891.34;5059323;28;45541;-68